sensor_id;sensor_type;location;lat;lon;timestamp;P1;durP1;ratioP1;P2;durP2;ratioP2
71083;SDS011;58741;52.672;13.548;2022-09-28T00:01:44;0.45;;;0.40;;
71083;SDS011;58741;52.672;13.548;2022-09-28T00:04:10;1.23;;;0.50;;
71083;SDS011;58741;52.672;13.548;2022-09-28T00:06:36;0.38;;;0.30;;
71083;SDS011;58741;52.672;13.548;2022-09-28T00:09:02;0.70;;;0.40;;
71083;SDS011;58741;52.672;13.548;2022-09-28T00:11:28;0.15;;;0.15;;
71083;SDS011;58741;52.672;13.548;2022-09-28T00:13:55;0.30;;;0.30;;
71083;SDS011;58741;52.672;13.548;2022-09-28T00:16:25;0.52;;;0.47;;
71083;SDS011;58741;52.672;13.548;2022-09-28T00:18:52;0.32;;;0.32;;
71083;SDS011;58741;52.672;13.548;2022-09-28T00:21:22;0.60;;;0.50;;
71083;SDS011;58741;52.672;13.548;2022-09-28T00:23:53;0.52;;;0.50;;
71083;SDS011;58741;52.672;13.548;2022-09-28T00:26:39;0.40;;;0.40;;
71083;SDS011;58741;52.672;13.548;2022-09-28T00:29:14;0.40;;;0.40;;
71083;SDS011;58741;52.672;13.548;2022-09-28T00:31:42;0.52;;;0.40;;
71083;SDS011;58741;52.672;13.548;2022-09-28T00:34:08;0.50;;;0.45;;
71083;SDS011;58741;52.672;13.548;2022-09-28T00:36:33;1.02;;;0.43;;
71083;SDS011;58741;52.672;13.548;2022-09-28T00:39:03;1.08;;;0.60;;
71083;SDS011;58741;52.672;13.548;2022-09-28T00:41:30;0.30;;;0.30;;
71083;SDS011;58741;52.672;13.548;2022-09-28T00:46:53;0.43;;;0.43;;
71083;SDS011;58741;52.672;13.548;2022-09-28T00:49:21;0.40;;;0.40;;
71083;SDS011;58741;52.672;13.548;2022-09-28T00:51:55;0.40;;;0.40;;
71083;SDS011;58741;52.672;13.548;2022-09-28T00:54:20;1.13;;;0.40;;
71083;SDS011;58741;52.672;13.548;2022-09-28T00:56:46;0.73;;;0.63;;
71083;SDS011;58741;52.672;13.548;2022-09-28T00:59:12;0.30;;;0.30;;
71083;SDS011;58741;52.672;13.548;2022-09-28T01:01:39;0.35;;;0.35;;
71083;SDS011;58741;52.672;13.548;2022-09-28T01:04:05;0.55;;;0.55;;
71083;SDS011;58741;52.672;13.548;2022-09-28T01:06:32;0.50;;;0.50;;
71083;SDS011;58741;52.672;13.548;2022-09-28T01:09:00;0.40;;;0.40;;
71083;SDS011;58741;52.672;13.548;2022-09-28T01:11:30;0.40;;;0.40;;
71083;SDS011;58741;52.672;13.548;2022-09-28T01:13:56;0.75;;;0.60;;
71083;SDS011;58741;52.672;13.548;2022-09-28T01:25:15;1.10;;;0.82;;
71083;SDS011;58741;52.672;13.548;2022-09-28T01:28:03;0.40;;;0.40;;
71083;SDS011;58741;52.672;13.548;2022-09-28T01:30:35;1.67;;;0.65;;
71083;SDS011;58741;52.672;13.548;2022-09-28T01:33:08;0.93;;;0.80;;
71083;SDS011;58741;52.672;13.548;2022-09-28T01:35:41;1.67;;;0.90;;
71083;SDS011;58741;52.672;13.548;2022-09-28T01:38:24;0.98;;;0.80;;
71083;SDS011;58741;52.672;13.548;2022-09-28T01:40:54;0.63;;;0.60;;
71083;SDS011;58741;52.672;13.548;2022-09-28T01:43:23;1.77;;;1.05;;
71083;SDS011;58741;52.672;13.548;2022-09-28T01:46:09;1.88;;;0.85;;
71083;SDS011;58741;52.672;13.548;2022-09-28T01:48:49;1.65;;;0.85;;
71083;SDS011;58741;52.672;13.548;2022-09-28T01:51:21;0.98;;;0.88;;
71083;SDS011;58741;52.672;13.548;2022-09-28T01:53:56;1.13;;;0.90;;
71083;SDS011;58741;52.672;13.548;2022-09-28T01:56:27;0.60;;;0.47;;
71083;SDS011;58741;52.672;13.548;2022-09-28T02:01:42;3.80;;;0.80;;
71083;SDS011;58741;52.672;13.548;2022-09-28T02:04:13;1.27;;;0.88;;
71083;SDS011;58741;52.672;13.548;2022-09-28T02:06:45;0.77;;;0.60;;
71083;SDS011;58741;52.672;13.548;2022-09-28T02:09:19;0.87;;;0.87;;
71083;SDS011;58741;52.672;13.548;2022-09-28T02:11:48;1.30;;;1.00;;
71083;SDS011;58741;52.672;13.548;2022-09-28T02:14:18;0.98;;;0.80;;
71083;SDS011;58741;52.672;13.548;2022-09-28T02:16:49;0.90;;;0.73;;
71083;SDS011;58741;52.672;13.548;2022-09-28T02:19:19;1.50;;;1.08;;
71083;SDS011;58741;52.672;13.548;2022-09-28T02:21:52;1.38;;;1.00;;
71083;SDS011;58741;52.672;13.548;2022-09-28T02:24:23;1.33;;;0.77;;
71083;SDS011;58741;52.672;13.548;2022-09-28T02:26:54;1.00;;;0.90;;
71083;SDS011;58741;52.672;13.548;2022-09-28T02:29:24;1.30;;;1.00;;
71083;SDS011;58741;52.672;13.548;2022-09-28T02:31:49;0.82;;;0.73;;
71083;SDS011;58741;52.672;13.548;2022-09-28T02:34:15;1.70;;;1.27;;
71083;SDS011;58741;52.672;13.548;2022-09-28T02:36:41;1.17;;;0.88;;
71083;SDS011;58741;52.672;13.548;2022-09-28T02:39:15;1.52;;;1.10;;
71083;SDS011;58741;52.672;13.548;2022-09-28T02:50:11;0.75;;;0.70;;
71083;SDS011;58741;52.672;13.548;2022-09-28T02:55:59;1.67;;;1.00;;
71083;SDS011;58741;52.672;13.548;2022-09-28T03:07:45;1.70;;;1.17;;
71083;SDS011;58741;52.672;13.548;2022-09-28T03:12:50;2.00;;;1.30;;
71083;SDS011;58741;52.672;13.548;2022-09-28T03:15:19;2.10;;;1.40;;
71083;SDS011;58741;52.672;13.548;2022-09-28T03:17:47;1.00;;;0.77;;
71083;SDS011;58741;52.672;13.548;2022-09-28T03:20:13;1.23;;;0.80;;
71083;SDS011;58741;52.672;13.548;2022-09-28T03:22:39;0.47;;;0.47;;
71083;SDS011;58741;52.672;13.548;2022-09-28T03:25:05;1.40;;;1.00;;
71083;SDS011;58741;52.672;13.548;2022-09-28T03:27:31;1.10;;;0.82;;
71083;SDS011;58741;52.672;13.548;2022-09-28T03:29:57;1.20;;;1.08;;
71083;SDS011;58741;52.672;13.548;2022-09-28T03:32:22;1.27;;;0.85;;
71083;SDS011;58741;52.672;13.548;2022-09-28T03:34:48;1.67;;;1.08;;
71083;SDS011;58741;52.672;13.548;2022-09-28T03:37:13;1.98;;;1.08;;
71083;SDS011;58741;52.672;13.548;2022-09-28T03:39:39;1.02;;;0.93;;
71083;SDS011;58741;52.672;13.548;2022-09-28T03:42:04;0.65;;;0.65;;
71083;SDS011;58741;52.672;13.548;2022-09-28T03:44:30;1.55;;;1.20;;
71083;SDS011;58741;52.672;13.548;2022-09-28T03:46:55;1.30;;;1.00;;
71083;SDS011;58741;52.672;13.548;2022-09-28T03:49:21;1.30;;;1.20;;
71083;SDS011;58741;52.672;13.548;2022-09-28T03:51:46;1.67;;;1.20;;
71083;SDS011;58741;52.672;13.548;2022-09-28T03:54:12;1.85;;;1.20;;
71083;SDS011;58741;52.672;13.548;2022-09-28T03:56:37;1.10;;;0.95;;
71083;SDS011;58741;52.672;13.548;2022-09-28T03:59:03;0.85;;;0.73;;
71083;SDS011;58741;52.672;13.548;2022-09-28T04:01:29;0.98;;;0.73;;
71083;SDS011;58741;52.672;13.548;2022-09-28T04:03:54;1.10;;;1.00;;
71083;SDS011;58741;52.672;13.548;2022-09-28T04:06:20;1.50;;;1.10;;
71083;SDS011;58741;52.672;13.548;2022-09-28T04:08:46;2.92;;;1.38;;
71083;SDS011;58741;52.672;13.548;2022-09-28T04:11:12;2.22;;;1.60;;
71083;SDS011;58741;52.672;13.548;2022-09-28T04:13:38;1.27;;;1.13;;
71083;SDS011;58741;52.672;13.548;2022-09-28T04:16:03;1.17;;;1.08;;
71083;SDS011;58741;52.672;13.548;2022-09-28T04:18:30;3.38;;;1.00;;
71083;SDS011;58741;52.672;13.548;2022-09-28T04:20:57;0.98;;;0.85;;
71083;SDS011;58741;52.672;13.548;2022-09-28T04:23:30;1.23;;;1.13;;
71083;SDS011;58741;52.672;13.548;2022-09-28T04:25:57;3.50;;;0.95;;
71083;SDS011;58741;52.672;13.548;2022-09-28T04:28:23;1.38;;;1.00;;
71083;SDS011;58741;52.672;13.548;2022-09-28T04:31:08;1.77;;;1.10;;
71083;SDS011;58741;52.672;13.548;2022-09-28T04:33:35;1.35;;;0.90;;
71083;SDS011;58741;52.672;13.548;2022-09-28T04:36:01;1.27;;;0.90;;
71083;SDS011;58741;52.672;13.548;2022-09-28T04:38:27;1.10;;;1.00;;
71083;SDS011;58741;52.672;13.548;2022-09-28T04:40:52;0.85;;;0.80;;
71083;SDS011;58741;52.672;13.548;2022-09-28T04:43:18;1.23;;;1.00;;
71083;SDS011;58741;52.672;13.548;2022-09-28T04:45:43;0.75;;;0.70;;
71083;SDS011;58741;52.672;13.548;2022-09-28T04:48:09;1.02;;;0.80;;
71083;SDS011;58741;52.672;13.548;2022-09-28T04:50:34;1.77;;;1.27;;
71083;SDS011;58741;52.672;13.548;2022-09-28T04:53:00;1.80;;;1.38;;
71083;SDS011;58741;52.672;13.548;2022-09-28T04:55:26;1.75;;;1.30;;
71083;SDS011;58741;52.672;13.548;2022-09-28T04:57:56;2.38;;;1.48;;
71083;SDS011;58741;52.672;13.548;2022-09-28T05:00:26;1.92;;;1.25;;
71083;SDS011;58741;52.672;13.548;2022-09-28T05:02:57;2.92;;;1.75;;
71083;SDS011;58741;52.672;13.548;2022-09-28T05:05:22;1.83;;;1.30;;
71083;SDS011;58741;52.672;13.548;2022-09-28T05:07:47;1.90;;;1.35;;
71083;SDS011;58741;52.672;13.548;2022-09-28T05:10:13;1.80;;;1.27;;
71083;SDS011;58741;52.672;13.548;2022-09-28T05:12:38;1.80;;;1.65;;
71083;SDS011;58741;52.672;13.548;2022-09-28T05:15:04;2.20;;;1.65;;
71083;SDS011;58741;52.672;13.548;2022-09-28T05:17:30;2.83;;;1.52;;
71083;SDS011;58741;52.672;13.548;2022-09-28T05:19:55;4.35;;;2.25;;
71083;SDS011;58741;52.672;13.548;2022-09-28T05:22:21;2.08;;;1.73;;
71083;SDS011;58741;52.672;13.548;2022-09-28T05:24:46;3.13;;;2.28;;
71083;SDS011;58741;52.672;13.548;2022-09-28T05:27:12;2.17;;;1.63;;
71083;SDS011;58741;52.672;13.548;2022-09-28T05:29:38;2.72;;;1.55;;
71083;SDS011;58741;52.672;13.548;2022-09-28T05:32:03;2.90;;;1.60;;
71083;SDS011;58741;52.672;13.548;2022-09-28T05:34:29;1.30;;;1.20;;
71083;SDS011;58741;52.672;13.548;2022-09-28T05:36:54;2.42;;;1.77;;
71083;SDS011;58741;52.672;13.548;2022-09-28T05:39:20;2.47;;;1.55;;
71083;SDS011;58741;52.672;13.548;2022-09-28T05:41:45;2.45;;;1.48;;
71083;SDS011;58741;52.672;13.548;2022-09-28T05:44:11;2.95;;;1.77;;
71083;SDS011;58741;52.672;13.548;2022-09-28T05:46:36;3.42;;;1.88;;
71083;SDS011;58741;52.672;13.548;2022-09-28T05:49:02;2.80;;;1.80;;
71083;SDS011;58741;52.672;13.548;2022-09-28T05:51:27;3.08;;;1.80;;
71083;SDS011;58741;52.672;13.548;2022-09-28T05:53:56;3.38;;;2.03;;
71083;SDS011;58741;52.672;13.548;2022-09-28T05:56:21;2.05;;;1.60;;
71083;SDS011;58741;52.672;13.548;2022-09-28T05:58:47;1.95;;;1.73;;
71083;SDS011;58741;52.672;13.548;2022-09-28T06:01:12;2.63;;;1.92;;
71083;SDS011;58741;52.672;13.548;2022-09-28T06:03:38;2.72;;;1.98;;
71083;SDS011;58741;52.672;13.548;2022-09-28T06:06:03;4.28;;;1.80;;
71083;SDS011;58741;52.672;13.548;2022-09-28T06:08:30;4.40;;;1.73;;
71083;SDS011;58741;52.672;13.548;2022-09-28T06:11:00;2.10;;;1.60;;
71083;SDS011;58741;52.672;13.548;2022-09-28T06:13:26;2.25;;;1.40;;
71083;SDS011;58741;52.672;13.548;2022-09-28T06:15:52;5.90;;;1.73;;
71083;SDS011;58741;52.672;13.548;2022-09-28T06:18:18;2.15;;;1.33;;
71083;SDS011;58741;52.672;13.548;2022-09-28T06:20:43;2.90;;;1.73;;
71083;SDS011;58741;52.672;13.548;2022-09-28T06:23:10;2.80;;;1.45;;
71083;SDS011;58741;52.672;13.548;2022-09-28T06:25:36;3.15;;;1.67;;
71083;SDS011;58741;52.672;13.548;2022-09-28T06:28:03;1.83;;;1.52;;
71083;SDS011;58741;52.672;13.548;2022-09-28T06:30:38;2.78;;;1.80;;
71083;SDS011;58741;52.672;13.548;2022-09-28T06:33:05;2.83;;;2.00;;
71083;SDS011;58741;52.672;13.548;2022-09-28T06:35:32;2.22;;;1.45;;
71083;SDS011;58741;52.672;13.548;2022-09-28T06:37:58;1.55;;;1.30;;
71083;SDS011;58741;52.672;13.548;2022-09-28T06:40:24;1.23;;;1.10;;
71083;SDS011;58741;52.672;13.548;2022-09-28T06:42:54;2.78;;;1.10;;
71083;SDS011;58741;52.672;13.548;2022-09-28T06:45:21;2.33;;;1.40;;
71083;SDS011;58741;52.672;13.548;2022-09-28T06:47:51;2.42;;;1.27;;
71083;SDS011;58741;52.672;13.548;2022-09-28T06:50:18;2.83;;;2.05;;
71083;SDS011;58741;52.672;13.548;2022-09-28T06:52:44;2.58;;;1.67;;
71083;SDS011;58741;52.672;13.548;2022-09-28T06:55:09;2.35;;;1.55;;
71083;SDS011;58741;52.672;13.548;2022-09-28T06:57:35;3.17;;;1.50;;
71083;SDS011;58741;52.672;13.548;2022-09-28T07:00:00;2.13;;;1.60;;
71083;SDS011;58741;52.672;13.548;2022-09-28T07:02:26;1.85;;;1.25;;
71083;SDS011;58741;52.672;13.548;2022-09-28T07:04:51;2.42;;;1.45;;
71083;SDS011;58741;52.672;13.548;2022-09-28T07:07:16;4.18;;;1.63;;
71083;SDS011;58741;52.672;13.548;2022-09-28T07:09:42;3.30;;;2.00;;
71083;SDS011;58741;52.672;13.548;2022-09-28T07:12:07;2.35;;;1.73;;
71083;SDS011;58741;52.672;13.548;2022-09-28T07:14:37;2.38;;;1.67;;
71083;SDS011;58741;52.672;13.548;2022-09-28T07:17:03;2.28;;;1.63;;
71083;SDS011;58741;52.672;13.548;2022-09-28T07:19:29;2.65;;;1.35;;
71083;SDS011;58741;52.672;13.548;2022-09-28T07:21:54;2.05;;;1.50;;
71083;SDS011;58741;52.672;13.548;2022-09-28T07:24:21;5.22;;;2.00;;
71083;SDS011;58741;52.672;13.548;2022-09-28T07:26:47;2.63;;;1.98;;
71083;SDS011;58741;52.672;13.548;2022-09-28T07:29:12;3.33;;;2.38;;
71083;SDS011;58741;52.672;13.548;2022-09-28T07:31:38;3.00;;;1.90;;
71083;SDS011;58741;52.672;13.548;2022-09-28T07:34:04;2.28;;;1.95;;
71083;SDS011;58741;52.672;13.548;2022-09-28T07:36:29;3.17;;;1.60;;
71083;SDS011;58741;52.672;13.548;2022-09-28T07:38:59;2.53;;;1.80;;
71083;SDS011;58741;52.672;13.548;2022-09-28T07:41:25;2.95;;;1.85;;
71083;SDS011;58741;52.672;13.548;2022-09-28T07:43:56;3.72;;;2.05;;
71083;SDS011;58741;52.672;13.548;2022-09-28T07:46:36;3.75;;;2.33;;
71083;SDS011;58741;52.672;13.548;2022-09-28T07:49:02;3.47;;;2.10;;
71083;SDS011;58741;52.672;13.548;2022-09-28T07:51:29;4.10;;;1.95;;
71083;SDS011;58741;52.672;13.548;2022-09-28T07:53:55;3.13;;;2.05;;
71083;SDS011;58741;52.672;13.548;2022-09-28T07:56:21;1.90;;;1.55;;
71083;SDS011;58741;52.672;13.548;2022-09-28T07:58:47;3.83;;;2.20;;
71083;SDS011;58741;52.672;13.548;2022-09-28T08:01:13;6.07;;;2.70;;
71083;SDS011;58741;52.672;13.548;2022-09-28T08:03:40;3.78;;;2.13;;
71083;SDS011;58741;52.672;13.548;2022-09-28T08:06:09;2.92;;;2.03;;
71083;SDS011;58741;52.672;13.548;2022-09-28T08:08:36;3.45;;;2.10;;
71083;SDS011;58741;52.672;13.548;2022-09-28T08:11:04;3.58;;;2.20;;
71083;SDS011;58741;52.672;13.548;2022-09-28T08:13:31;3.00;;;2.40;;
71083;SDS011;58741;52.672;13.548;2022-09-28T08:15:59;6.15;;;2.65;;
71083;SDS011;58741;52.672;13.548;2022-09-28T08:18:25;2.90;;;1.70;;
71083;SDS011;58741;52.672;13.548;2022-09-28T08:20:51;2.78;;;1.70;;
71083;SDS011;58741;52.672;13.548;2022-09-28T08:23:35;4.00;;;2.33;;
71083;SDS011;58741;52.672;13.548;2022-09-28T08:26:02;3.00;;;2.22;;
71083;SDS011;58741;52.672;13.548;2022-09-28T08:28:28;3.15;;;2.30;;
71083;SDS011;58741;52.672;13.548;2022-09-28T08:30:54;2.10;;;1.80;;
71083;SDS011;58741;52.672;13.548;2022-09-28T08:33:22;4.10;;;2.00;;
71083;SDS011;58741;52.672;13.548;2022-09-28T08:35:58;2.67;;;2.10;;
71083;SDS011;58741;52.672;13.548;2022-09-28T08:38:25;2.88;;;1.67;;
71083;SDS011;58741;52.672;13.548;2022-09-28T08:40:58;1.48;;;1.27;;
71083;SDS011;58741;52.672;13.548;2022-09-28T08:46:09;2.65;;;2.05;;
71083;SDS011;58741;52.672;13.548;2022-09-28T08:48:43;4.35;;;1.52;;
71083;SDS011;58741;52.672;13.548;2022-09-28T08:53:51;1.92;;;1.50;;
71083;SDS011;58741;52.672;13.548;2022-09-28T08:59:06;7.78;;;1.92;;
71083;SDS011;58741;52.672;13.548;2022-09-28T09:01:53;4.65;;;1.75;;
71083;SDS011;58741;52.672;13.548;2022-09-28T09:04:23;1.50;;;1.17;;
71083;SDS011;58741;52.672;13.548;2022-09-28T09:06:55;3.42;;;1.55;;
71083;SDS011;58741;52.672;13.548;2022-09-28T09:09:35;2.65;;;1.83;;
71083;SDS011;58741;52.672;13.548;2022-09-28T09:12:26;3.22;;;2.15;;
71083;SDS011;58741;52.672;13.548;2022-09-28T09:15:14;3.47;;;2.00;;
71083;SDS011;58741;52.672;13.548;2022-09-28T09:20:32;2.22;;;1.80;;
71083;SDS011;58741;52.672;13.548;2022-09-28T09:23:01;5.50;;;1.70;;
71083;SDS011;58741;52.672;13.548;2022-09-28T09:25:39;2.42;;;1.60;;
71083;SDS011;58741;52.672;13.548;2022-09-28T09:33:43;3.47;;;1.73;;
71083;SDS011;58741;52.672;13.548;2022-09-28T09:41:52;1.90;;;1.50;;
71083;SDS011;58741;52.672;13.548;2022-09-28T09:44:51;1.65;;;1.30;;
71083;SDS011;58741;52.672;13.548;2022-09-28T09:47:42;2.63;;;1.67;;
71083;SDS011;58741;52.672;13.548;2022-09-28T09:52:55;1.05;;;0.85;;
71083;SDS011;58741;52.672;13.548;2022-09-28T09:55:43;1.30;;;1.20;;
71083;SDS011;58741;52.672;13.548;2022-09-28T09:58:14;6.70;;;1.52;;
71083;SDS011;58741;52.672;13.548;2022-09-28T10:00:46;1.88;;;1.17;;
71083;SDS011;58741;52.672;13.548;2022-09-28T10:03:16;1.88;;;1.50;;
71083;SDS011;58741;52.672;13.548;2022-09-28T10:05:47;1.60;;;1.50;;
71083;SDS011;58741;52.672;13.548;2022-09-28T10:08:19;2.67;;;1.38;;
71083;SDS011;58741;52.672;13.548;2022-09-28T10:10:48;2.33;;;1.40;;
71083;SDS011;58741;52.672;13.548;2022-09-28T10:13:20;2.10;;;1.42;;
71083;SDS011;58741;52.672;13.548;2022-09-28T10:15:45;1.45;;;1.30;;
71083;SDS011;58741;52.672;13.548;2022-09-28T10:18:13;4.20;;;1.85;;
71083;SDS011;58741;52.672;13.548;2022-09-28T10:20:40;2.25;;;1.20;;
71083;SDS011;58741;52.672;13.548;2022-09-28T10:23:18;2.47;;;1.63;;
71083;SDS011;58741;52.672;13.548;2022-09-28T10:25:48;3.00;;;1.85;;
71083;SDS011;58741;52.672;13.548;2022-09-28T10:28:18;2.58;;;1.77;;
71083;SDS011;58741;52.672;13.548;2022-09-28T10:30:49;1.52;;;1.20;;
71083;SDS011;58741;52.672;13.548;2022-09-28T10:33:28;2.42;;;1.60;;
71083;SDS011;58741;52.672;13.548;2022-09-28T10:35:58;1.70;;;1.33;;
71083;SDS011;58741;52.672;13.548;2022-09-28T10:38:25;1.45;;;1.20;;
71083;SDS011;58741;52.672;13.548;2022-09-28T10:40:53;2.03;;;1.17;;
71083;SDS011;58741;52.672;13.548;2022-09-28T10:43:29;1.60;;;1.23;;
71083;SDS011;58741;52.672;13.548;2022-09-28T10:46:10;1.00;;;1.00;;
71083;SDS011;58741;52.672;13.548;2022-09-28T10:48:46;1.83;;;1.45;;
71083;SDS011;58741;52.672;13.548;2022-09-28T10:51:13;1.92;;;1.17;;
71083;SDS011;58741;52.672;13.548;2022-09-28T10:53:40;0.98;;;0.82;;
71083;SDS011;58741;52.672;13.548;2022-09-28T10:56:17;1.00;;;0.90;;
71083;SDS011;58741;52.672;13.548;2022-09-28T10:58:45;0.80;;;0.70;;
71083;SDS011;58741;52.672;13.548;2022-09-28T11:01:11;1.38;;;1.23;;
71083;SDS011;58741;52.672;13.548;2022-09-28T11:03:46;1.42;;;1.27;;
71083;SDS011;58741;52.672;13.548;2022-09-28T11:06:14;1.27;;;1.10;;
71083;SDS011;58741;52.672;13.548;2022-09-28T11:08:48;1.65;;;1.30;;
71083;SDS011;58741;52.672;13.548;2022-09-28T11:11:15;1.33;;;0.98;;
71083;SDS011;58741;52.672;13.548;2022-09-28T11:13:45;2.47;;;0.88;;
71083;SDS011;58741;52.672;13.548;2022-09-28T11:16:17;0.90;;;0.73;;
71083;SDS011;58741;52.672;13.548;2022-09-28T11:18:53;1.77;;;1.00;;
71083;SDS011;58741;52.672;13.548;2022-09-28T11:21:24;1.48;;;1.10;;
71083;SDS011;58741;52.672;13.548;2022-09-28T11:24:34;1.42;;;0.82;;
71083;SDS011;58741;52.672;13.548;2022-09-28T11:26:44;2.05;;;0.70;;
71083;SDS011;58741;52.672;13.548;2022-09-28T11:29:22;0.50;;;0.50;;
71083;SDS011;58741;52.672;13.548;2022-09-28T11:31:57;1.02;;;0.82;;
71083;SDS011;58741;52.672;13.548;2022-09-28T11:34:27;0.57;;;0.55;;
71083;SDS011;58741;52.672;13.548;2022-09-28T11:45:36;0.73;;;0.60;;
71083;SDS011;58741;52.672;13.548;2022-09-28T11:48:14;1.75;;;0.52;;
71083;SDS011;58741;52.672;13.548;2022-09-28T11:50:47;0.73;;;0.68;;
71083;SDS011;58741;52.672;13.548;2022-09-28T11:53:22;0.63;;;0.50;;
71083;SDS011;58741;52.672;13.548;2022-09-28T11:55:54;0.50;;;0.50;;
71083;SDS011;58741;52.672;13.548;2022-09-28T11:58:41;0.73;;;0.50;;
71083;SDS011;58741;52.672;13.548;2022-09-28T12:01:18;0.50;;;0.32;;
71083;SDS011;58741;52.672;13.548;2022-09-28T12:03:49;0.30;;;0.30;;
71083;SDS011;58741;52.672;13.548;2022-09-28T12:06:21;0.38;;;0.38;;
71083;SDS011;58741;52.672;13.548;2022-09-28T12:08:54;0.45;;;0.30;;
71083;SDS011;58741;52.672;13.548;2022-09-28T12:11:46;0.90;;;0.35;;
71083;SDS011;58741;52.672;13.548;2022-09-28T12:14:19;2.63;;;0.60;;
71083;SDS011;58741;52.672;13.548;2022-09-28T12:16:59;0.30;;;0.30;;
71083;SDS011;58741;52.672;13.548;2022-09-28T12:19:31;0.50;;;0.50;;
71083;SDS011;58741;52.672;13.548;2022-09-28T12:22:31;0.80;;;0.60;;
71083;SDS011;58741;52.672;13.548;2022-09-28T12:25:01;0.98;;;0.73;;
71083;SDS011;58741;52.672;13.548;2022-09-28T12:27:31;1.58;;;0.80;;
71083;SDS011;58741;52.672;13.548;2022-09-28T12:33:00;1.08;;;0.52;;
71083;SDS011;58741;52.672;13.548;2022-09-28T12:35:58;0.82;;;0.40;;
71083;SDS011;58741;52.672;13.548;2022-09-28T12:38:37;0.93;;;0.50;;
71083;SDS011;58741;52.672;13.548;2022-09-28T12:41:22;0.47;;;0.40;;
71083;SDS011;58741;52.672;13.548;2022-09-28T12:49:23;5.07;;;1.07;;
71083;SDS011;58741;52.672;13.548;2022-09-28T12:51:59;1.83;;;0.63;;
71083;SDS011;58741;52.672;13.548;2022-09-28T12:54:51;1.02;;;0.90;;
71083;SDS011;58741;52.672;13.548;2022-09-28T12:57:29;1.02;;;0.77;;
71083;SDS011;58741;52.672;13.548;2022-09-28T13:00:14;0.40;;;0.40;;
71083;SDS011;58741;52.672;13.548;2022-09-28T13:02:52;0.52;;;0.50;;
71083;SDS011;58741;52.672;13.548;2022-09-28T13:06:00;1.20;;;0.60;;
71083;SDS011;58741;52.672;13.548;2022-09-28T13:08:32;0.43;;;0.43;;
71083;SDS011;58741;52.672;13.548;2022-09-28T13:17:35;0.30;;;0.30;;
71083;SDS011;58741;52.672;13.548;2022-09-28T13:20:26;0.30;;;0.30;;
71083;SDS011;58741;52.672;13.548;2022-09-28T13:23:20;0.30;;;0.30;;
71083;SDS011;58741;52.672;13.548;2022-09-28T13:28:18;0.50;;;0.50;;
71083;SDS011;58741;52.672;13.548;2022-09-28T13:30:45;0.20;;;0.20;;
71083;SDS011;58741;52.672;13.548;2022-09-28T13:33:31;2.65;;;0.30;;
71083;SDS011;58741;52.672;13.548;2022-09-28T13:36:34;0.35;;;0.35;;
71083;SDS011;58741;52.672;13.548;2022-09-28T13:38:48;0.63;;;0.60;;
71083;SDS011;58741;52.672;13.548;2022-09-28T13:41:16;0.50;;;0.40;;
71083;SDS011;58741;52.672;13.548;2022-09-28T13:51:38;0.43;;;0.38;;
71083;SDS011;58741;52.672;13.548;2022-09-28T13:54:22;0.40;;;0.40;;
71083;SDS011;58741;52.672;13.548;2022-09-28T13:57:11;0.40;;;0.40;;
71083;SDS011;58741;52.672;13.548;2022-09-28T14:02:35;0.20;;;0.20;;
71083;SDS011;58741;52.672;13.548;2022-09-28T14:05:05;0.47;;;0.40;;
71083;SDS011;58741;52.672;13.548;2022-09-28T14:10:49;0.73;;;0.60;;
71083;SDS011;58741;52.672;13.548;2022-09-28T14:16:18;0.28;;;0.28;;
71083;SDS011;58741;52.672;13.548;2022-09-28T14:18:48;0.38;;;0.30;;
71083;SDS011;58741;52.672;13.548;2022-09-28T14:21:36;0.73;;;0.30;;
71083;SDS011;58741;52.672;13.548;2022-09-28T14:24:22;0.88;;;0.35;;
71083;SDS011;58741;52.672;13.548;2022-09-28T14:29:52;0.30;;;0.30;;
71083;SDS011;58741;52.672;13.548;2022-09-28T14:32:33;4.85;;;0.40;;
71083;SDS011;58741;52.672;13.548;2022-09-28T14:35:01;1.17;;;0.40;;
71083;SDS011;58741;52.672;13.548;2022-09-28T14:37:30;0.52;;;0.50;;
71083;SDS011;58741;52.672;13.548;2022-09-28T14:40:28;1.52;;;0.28;;
71083;SDS011;58741;52.672;13.548;2022-09-28T14:43:34;0.20;;;0.20;;
71083;SDS011;58741;52.672;13.548;2022-09-28T14:52:03;0.40;;;0.40;;
71083;SDS011;58741;52.672;13.548;2022-09-28T14:54:04;5.22;;;0.80;;
71083;SDS011;58741;52.672;13.548;2022-09-28T14:59:37;1.25;;;0.70;;
71083;SDS011;58741;52.672;13.548;2022-09-28T15:04:45;1.77;;;0.95;;
71083;SDS011;58741;52.672;13.548;2022-09-28T15:07:18;0.90;;;0.82;;
71083;SDS011;58741;52.672;13.548;2022-09-28T15:09:46;0.57;;;0.55;;
71083;SDS011;58741;52.672;13.548;2022-09-28T15:12:13;0.25;;;0.25;;
71083;SDS011;58741;52.672;13.548;2022-09-28T15:15:01;0.52;;;0.52;;
71083;SDS011;58741;52.672;13.548;2022-09-28T15:17:33;0.60;;;0.60;;
71083;SDS011;58741;52.672;13.548;2022-09-28T15:23:21;0.60;;;0.50;;
71083;SDS011;58741;52.672;13.548;2022-09-28T15:28:19;0.32;;;0.32;;
71083;SDS011;58741;52.672;13.548;2022-09-28T15:30:48;0.57;;;0.45;;
71083;SDS011;58741;52.672;13.548;2022-09-28T15:33:24;1.10;;;0.60;;
71083;SDS011;58741;52.672;13.548;2022-09-28T15:36:29;0.30;;;0.30;;
71083;SDS011;58741;52.672;13.548;2022-09-28T15:41:34;0.40;;;0.40;;
71083;SDS011;58741;52.672;13.548;2022-09-28T15:46:48;0.43;;;0.40;;
71083;SDS011;58741;52.672;13.548;2022-09-28T15:49:21;0.30;;;0.30;;
71083;SDS011;58741;52.672;13.548;2022-09-28T15:51:51;0.30;;;0.30;;
71083;SDS011;58741;52.672;13.548;2022-09-28T15:54:20;0.82;;;0.50;;
71083;SDS011;58741;52.672;13.548;2022-09-28T15:56:57;0.40;;;0.40;;
71083;SDS011;58741;52.672;13.548;2022-09-28T15:59:28;0.30;;;0.30;;
71083;SDS011;58741;52.672;13.548;2022-09-28T16:02:14;0.52;;;0.52;;
71083;SDS011;58741;52.672;13.548;2022-09-28T16:07:44;0.52;;;0.45;;
71083;SDS011;58741;52.672;13.548;2022-09-28T16:12:43;0.57;;;0.55;;
71083;SDS011;58741;52.672;13.548;2022-09-28T16:17:52;0.55;;;0.55;;
71083;SDS011;58741;52.672;13.548;2022-09-28T16:20:22;2.00;;;0.47;;
71083;SDS011;58741;52.672;13.548;2022-09-28T16:22:59;1.02;;;0.60;;
71083;SDS011;58741;52.672;13.548;2022-09-28T16:25:32;0.40;;;0.40;;
71083;SDS011;58741;52.672;13.548;2022-09-28T16:28:01;0.40;;;0.40;;
71083;SDS011;58741;52.672;13.548;2022-09-28T16:30:28;0.32;;;0.32;;
71083;SDS011;58741;52.672;13.548;2022-09-28T16:32:57;0.82;;;0.55;;
71083;SDS011;58741;52.672;13.548;2022-09-28T16:38:14;0.57;;;0.57;;
71083;SDS011;58741;52.672;13.548;2022-09-28T16:40:48;0.57;;;0.40;;
71083;SDS011;58741;52.672;13.548;2022-09-28T16:43:25;1.83;;;0.52;;
71083;SDS011;58741;52.672;13.548;2022-09-28T16:45:53;0.65;;;0.65;;
71083;SDS011;58741;52.672;13.548;2022-09-28T16:48:33;0.60;;;0.60;;
71083;SDS011;58741;52.672;13.548;2022-09-28T16:51:03;0.93;;;0.80;;
71083;SDS011;58741;52.672;13.548;2022-09-28T16:53:28;0.70;;;0.52;;
71083;SDS011;58741;52.672;13.548;2022-09-28T16:56:13;0.50;;;0.47;;
71083;SDS011;58741;52.672;13.548;2022-09-28T16:58:38;5.28;;;0.82;;
71083;SDS011;58741;52.672;13.548;2022-09-28T17:01:08;0.65;;;0.60;;
71083;SDS011;58741;52.672;13.548;2022-09-28T17:03:35;0.70;;;0.68;;
71083;SDS011;58741;52.672;13.548;2022-09-28T17:06:01;1.60;;;1.30;;
71083;SDS011;58741;52.672;13.548;2022-09-28T17:08:28;1.58;;;1.45;;
71083;SDS011;58741;52.672;13.548;2022-09-28T17:11:00;2.40;;;1.65;;
71083;SDS011;58741;52.672;13.548;2022-09-28T17:13:29;2.10;;;1.37;;
71083;SDS011;58741;52.672;13.548;2022-09-28T17:16:00;1.45;;;1.17;;
71083;SDS011;58741;52.672;13.548;2022-09-28T17:18:34;3.10;;;1.60;;